createdAt,value
2022-08-03T00:00:49.269Z,23.15
2022-08-03T00:01:49.277Z,23.15
2022-08-03T00:02:49.275Z,23.14
2022-08-03T00:03:49.244Z,23.14
2022-08-03T00:04:49.503Z,23.11
2022-08-03T00:06:04.206Z,23.07
2022-08-03T00:06:50.204Z,23.07
2022-08-03T00:07:49.476Z,23.07
2022-08-03T00:08:49.204Z,23.06
2022-08-03T00:09:49.193Z,23.06
2022-08-03T00:10:49.175Z,23.03
2022-08-03T00:11:49.155Z,22.99
2022-08-03T00:12:49.156Z,22.96
2022-08-03T00:13:49.155Z,22.93
2022-08-03T00:14:49.135Z,22.91
2022-08-03T00:15:49.126Z,22.89
2022-08-03T00:16:49.107Z,22.88
2022-08-03T00:17:52.351Z,22.86
2022-08-03T00:18:49.087Z,22.85
2022-08-03T00:19:49.084Z,22.86
2022-08-03T00:20:49.058Z,22.86
2022-08-03T00:21:49.042Z,22.86
2022-08-03T00:22:49.045Z,22.84
2022-08-03T00:23:51.355Z,22.82
2022-08-03T00:24:49.057Z,22.84
2022-08-03T00:25:49.020Z,22.84
2022-08-03T00:26:48.998Z,22.81
2022-08-03T00:27:48.980Z,22.78
2022-08-03T00:28:49.011Z,22.76
2022-08-03T00:29:59.375Z,22.72
2022-08-03T00:30:49.960Z,22.72
2022-08-03T00:31:51.494Z,22.70
2022-08-03T00:32:49.951Z,22.69
2022-08-03T00:33:59.101Z,22.66
2022-08-03T00:34:57.244Z,22.66
2022-08-03T00:35:50.941Z,22.66
2022-08-03T00:36:48.904Z,22.64
2022-08-03T00:37:48.900Z,22.61
2022-08-03T00:38:48.893Z,22.61
2022-08-03T00:39:48.872Z,22.61
2022-08-03T00:40:48.854Z,22.59
2022-08-03T00:41:48.856Z,22.57
2022-08-03T00:42:48.855Z,22.56
2022-08-03T00:43:48.812Z,22.54
2022-08-03T00:44:48.845Z,22.54
2022-08-03T00:45:48.806Z,22.54
2022-08-03T00:46:48.817Z,22.54
2022-08-03T00:47:48.774Z,22.56
2022-08-03T00:48:48.767Z,22.56
2022-08-03T00:49:48.756Z,22.57
2022-08-03T00:50:48.777Z,22.54
2022-08-03T00:51:48.758Z,22.54
2022-08-03T00:52:48.725Z,22.51
2022-08-03T00:53:48.711Z,22.51
2022-08-03T00:54:48.718Z,22.52
2022-08-03T00:55:48.688Z,22.48
2022-08-03T00:57:00.108Z,22.48
2022-08-03T00:57:49.678Z,22.46
2022-08-03T00:58:48.670Z,22.46
2022-08-03T00:59:48.644Z,22.46
2022-08-03T01:00:48.736Z,22.45
2022-08-03T01:01:48.746Z,22.44
2022-08-03T01:02:48.621Z,22.44
2022-08-03T01:03:48.601Z,22.42
2022-08-03T01:04:48.621Z,22.41
2022-08-03T01:05:48.612Z,22.39
2022-08-03T01:06:48.602Z,22.38
2022-08-03T01:07:48.561Z,22.35
2022-08-03T01:08:48.575Z,22.35
2022-08-03T01:09:48.553Z,22.33
2022-08-03T01:10:48.533Z,22.31
2022-08-03T01:12:00.767Z,22.30
2022-08-03T01:12:49.534Z,22.29
2022-08-03T01:14:01.290Z,22.29
2022-08-03T01:14:49.484Z,22.27
2022-08-03T01:15:48.498Z,22.26
2022-08-03T01:16:48.464Z,22.26
2022-08-03T01:17:48.444Z,22.23
2022-08-03T01:18:48.457Z,22.23
2022-08-03T01:19:48.453Z,22.20
2022-08-03T01:20:48.427Z,22.20
2022-08-03T01:21:48.676Z,22.19
2022-08-03T01:22:48.397Z,22.19
2022-08-03T01:23:48.394Z,22.17
2022-08-03T01:24:48.398Z,22.15
2022-08-03T01:25:48.368Z,22.15
2022-08-03T01:26:49.349Z,22.11
2022-08-03T01:27:48.328Z,22.11
2022-08-03T01:28:48.330Z,22.11
2022-08-03T01:29:48.320Z,22.09
2022-08-03T01:30:48.320Z,22.09
2022-08-03T01:32:58.490Z,22.06
2022-08-03T01:32:59.657Z,22.05
2022-08-03T01:33:49.272Z,22.02
2022-08-03T01:34:48.260Z,22.01
2022-08-03T01:35:48.249Z,22.01
2022-08-03T01:36:48.260Z,21.98
2022-08-03T01:37:48.240Z,21.96
2022-08-03T01:38:48.221Z,21.93
2022-08-03T01:39:48.201Z,21.93
2022-08-03T01:40:48.202Z,21.90
2022-08-03T01:41:48.189Z,21.89
2022-08-03T01:42:48.191Z,21.85
2022-08-03T01:43:55.147Z,21.83
2022-08-03T01:44:49.151Z,21.82
2022-08-03T01:45:48.140Z,21.81
2022-08-03T01:46:49.054Z,21.79
2022-08-03T01:47:48.136Z,21.75
2022-08-03T01:48:48.126Z,21.74
2022-08-03T01:49:48.178Z,21.74
2022-08-03T01:50:48.102Z,21.71
2022-08-03T01:51:57.907Z,21.71
2022-08-03T01:52:49.069Z,21.70
2022-08-03T01:53:48.066Z,21.68
2022-08-03T01:54:48.047Z,21.64
2022-08-03T01:55:48.037Z,21.66
2022-08-03T01:56:48.026Z,21.63
2022-08-03T01:58:06.087Z,21.61
2022-08-03T01:58:49.009Z,21.59
2022-08-03T01:59:47.999Z,21.59
2022-08-03T02:00:48.049Z,21.56
2022-08-03T02:02:15.494Z,21.55
2022-08-03T02:02:49.013Z,21.53
2022-08-03T02:04:00.253Z,21.51
2022-08-03T02:04:48.962Z,21.49
2022-08-03T02:05:47.927Z,21.48
2022-08-03T02:07:01.558Z,21.46
2022-08-03T02:07:48.902Z,21.45
2022-08-03T02:08:47.929Z,21.45
2022-08-03T02:09:47.887Z,21.42
2022-08-03T02:10:47.879Z,21.42
2022-08-03T02:11:47.871Z,21.42
2022-08-03T02:12:51.087Z,21.42
2022-08-03T02:13:47.841Z,21.38
2022-08-03T02:14:47.852Z,21.40
2022-08-03T02:15:47.823Z,21.38
2022-08-03T02:16:47.822Z,21.37
2022-08-03T02:17:47.793Z,21.36
2022-08-03T02:18:47.802Z,21.31
2022-08-03T02:19:47.782Z,21.31
2022-08-03T02:20:47.774Z,21.31
2022-08-03T02:21:57.291Z,21.30
2022-08-03T02:22:48.765Z,21.28
2022-08-03T02:23:47.744Z,21.28
2022-08-03T02:24:49.333Z,21.26
2022-08-03T02:25:47.714Z,21.26
2022-08-03T02:26:47.713Z,21.24
2022-08-03T02:27:47.695Z,21.22
2022-08-03T02:28:47.699Z,21.22
2022-08-03T02:29:47.676Z,21.21
2022-08-03T02:30:51.747Z,21.19
2022-08-03T02:31:48.665Z,21.16
2022-08-03T02:32:47.664Z,21.16
2022-08-03T02:33:47.638Z,21.16
2022-08-03T02:34:47.651Z,21.15
2022-08-03T02:35:47.616Z,21.13
2022-08-03T02:36:47.608Z,21.13
2022-08-03T02:37:49.755Z,21.12
2022-08-03T02:38:47.588Z,21.11
2022-08-03T02:39:47.568Z,21.09
2022-08-03T02:40:47.569Z,21.08
2022-08-03T02:41:47.558Z,21.06
2022-08-03T02:42:47.547Z,21.06
2022-08-03T02:44:06.473Z,21.06
2022-08-03T02:44:48.525Z,21.06
2022-08-03T02:45:47.539Z,21.03
2022-08-03T02:46:47.621Z,21.03
2022-08-03T02:47:53.504Z,21.01
2022-08-03T02:48:48.479Z,21.00
2022-08-03T02:49:50.405Z,20.97
2022-08-03T02:50:47.463Z,20.97
2022-08-03T02:51:47.464Z,20.94
2022-08-03T02:52:47.445Z,20.94
2022-08-03T02:53:47.456Z,20.93
2022-08-03T02:54:47.413Z,20.93
2022-08-03T02:55:47.418Z,20.93
2022-08-03T02:56:47.392Z,20.91
2022-08-03T02:57:47.391Z,20.88
2022-08-03T02:58:47.372Z,20.90
2022-08-03T02:59:47.374Z,20.88
2022-08-03T03:00:47.393Z,20.88
2022-08-03T03:01:47.346Z,20.88
2022-08-03T03:02:47.355Z,20.88
2022-08-03T03:03:47.336Z,20.88
2022-08-03T03:05:53.118Z,20.85
2022-08-03T03:05:55.449Z,20.88
2022-08-03T03:06:48.328Z,20.85
2022-08-03T03:07:49.799Z,20.85
2022-08-03T03:08:48.296Z,20.85
2022-08-03T03:09:47.267Z,20.83
2022-08-03T03:10:47.250Z,20.83
2022-08-03T03:11:47.245Z,20.82
2022-08-03T03:12:47.228Z,20.79
2022-08-03T03:13:47.228Z,20.79
2022-08-03T03:14:47.227Z,20.78
2022-08-03T03:15:47.198Z,20.79
2022-08-03T03:16:47.198Z,20.76
2022-08-03T03:17:47.178Z,20.78
2022-08-03T03:18:47.167Z,20.75
2022-08-03T03:19:47.159Z,20.76
2022-08-03T03:20:47.160Z,20.76
2022-08-03T03:21:47.157Z,20.76
2022-08-03T03:22:47.120Z,20.75
2022-08-03T03:23:47.133Z,20.76
2022-08-03T03:24:47.111Z,20.73
2022-08-03T03:25:47.091Z,20.73
2022-08-03T03:26:47.082Z,20.75
2022-08-03T03:27:49.402Z,20.73
2022-08-03T03:28:47.061Z,20.73
2022-08-03T03:29:47.082Z,20.72
2022-08-03T03:30:52.666Z,20.69
2022-08-03T03:31:48.032Z,20.71
2022-08-03T03:32:47.021Z,20.71
2022-08-03T03:33:47.013Z,20.68
2022-08-03T03:34:46.994Z,20.69
2022-08-03T03:35:46.994Z,20.69
2022-08-03T03:36:46.982Z,20.69
2022-08-03T03:37:46.971Z,20.69
2022-08-03T03:38:46.956Z,20.68
2022-08-03T03:39:46.959Z,20.68
2022-08-03T03:40:46.935Z,20.69
2022-08-03T03:41:46.943Z,20.68
2022-08-03T03:42:46.913Z,20.68
2022-08-03T03:43:46.906Z,20.68
2022-08-03T03:44:46.887Z,20.68
2022-08-03T03:45:46.888Z,20.69
2022-08-03T03:46:46.886Z,20.68
2022-08-03T03:47:46.865Z,20.69
2022-08-03T03:48:46.866Z,20.66
2022-08-03T03:49:46.844Z,20.64
2022-08-03T03:50:46.838Z,20.64
2022-08-03T03:51:46.817Z,20.63
2022-08-03T03:52:46.808Z,20.61
2022-08-03T03:53:46.821Z,20.61
2022-08-03T03:54:46.787Z,20.61
2022-08-03T03:56:02.423Z,20.61
2022-08-03T03:56:47.759Z,20.63
2022-08-03T03:57:46.791Z,20.60
2022-08-03T03:58:46.739Z,20.61
2022-08-03T03:59:46.738Z,20.60
2022-08-03T04:00:46.736Z,20.60
2022-08-03T04:01:46.710Z,20.57
2022-08-03T04:02:46.710Z,20.57
2022-08-03T04:03:46.690Z,20.58
2022-08-03T04:04:46.691Z,20.56
2022-08-03T04:05:46.671Z,20.57
2022-08-03T04:06:46.661Z,20.56
2022-08-03T04:07:46.671Z,20.53
2022-08-03T04:08:46.642Z,20.53
2022-08-03T04:09:46.642Z,20.53
2022-08-03T04:10:46.613Z,20.53
2022-08-03T04:11:46.604Z,20.51
2022-08-03T04:12:49.999Z,20.50
2022-08-03T04:13:46.603Z,20.51
2022-08-03T04:14:46.587Z,20.50
2022-08-03T04:15:46.564Z,20.51
2022-08-03T04:16:46.555Z,20.51
2022-08-03T04:17:46.545Z,20.51
2022-08-03T04:18:46.556Z,20.51
2022-08-03T04:19:46.528Z,20.51
2022-08-03T04:20:46.507Z,20.50
2022-08-03T04:21:46.506Z,20.50
2022-08-03T04:22:46.497Z,20.48
2022-08-03T04:23:46.487Z,20.50
2022-08-03T04:24:46.585Z,20.50
2022-08-03T04:25:46.468Z,20.50
2022-08-03T04:26:50.854Z,20.50
2022-08-03T04:28:28.370Z,20.50
2022-08-03T04:28:47.459Z,20.48
2022-08-03T04:29:48.541Z,20.50
2022-08-03T04:30:46.499Z,20.48
2022-08-03T04:31:46.422Z,20.48
2022-08-03T04:32:46.400Z,20.48
2022-08-03T04:33:46.379Z,20.46
2022-08-03T04:34:46.389Z,20.44
2022-08-03T04:35:59.727Z,20.44
2022-08-03T04:36:47.371Z,20.44
2022-08-03T04:37:46.350Z,20.46
2022-08-03T04:38:46.332Z,20.46
2022-08-03T04:39:46.493Z,20.46
2022-08-03T04:40:46.331Z,20.46
2022-08-03T04:42:06.732Z,20.48
2022-08-03T04:42:47.302Z,20.50
2022-08-03T04:43:47.303Z,20.50
2022-08-03T04:44:46.271Z,20.50
2022-08-03T04:45:46.263Z,20.48
2022-08-03T04:46:50.445Z,20.48
2022-08-03T04:47:47.390Z,20.50
2022-08-03T04:48:46.228Z,20.48
2022-08-03T04:49:46.212Z,20.50
2022-08-03T04:50:46.222Z,20.48
2022-08-03T04:51:46.193Z,20.48
2022-08-03T04:52:46.185Z,20.51
2022-08-03T04:53:46.276Z,20.51
2022-08-03T04:54:50.201Z,20.53
2022-08-03T04:55:46.153Z,20.51
2022-08-03T04:56:46.138Z,20.54
2022-08-03T04:57:46.125Z,20.54
2022-08-03T04:58:46.127Z,20.56
2022-08-03T04:59:46.106Z,20.56
2022-08-03T05:00:46.098Z,20.56
2022-08-03T05:01:46.157Z,20.58
2022-08-03T05:02:46.066Z,20.58
2022-08-03T05:03:46.067Z,20.57
2022-08-03T05:04:46.069Z,20.58
2022-08-03T05:05:50.062Z,20.60
2022-08-03T05:06:48.346Z,20.61
2022-08-03T05:07:47.018Z,20.61
2022-08-03T05:08:47.122Z,20.61
2022-08-03T05:09:52.355Z,20.60
2022-08-03T05:10:46.992Z,20.61
2022-08-03T05:11:45.992Z,20.63
2022-08-03T05:12:45.969Z,20.63
2022-08-03T05:13:45.950Z,20.64
2022-08-03T05:14:46.658Z,20.68
2022-08-03T05:15:45.953Z,20.68
2022-08-03T05:16:46.944Z,20.69
2022-08-03T05:17:45.914Z,20.72
2022-08-03T05:18:46.924Z,20.73
2022-08-03T05:19:45.892Z,20.75
2022-08-03T05:20:46.585Z,20.76
2022-08-03T05:21:52.536Z,20.78
2022-08-03T05:22:47.567Z,20.81
2022-08-03T05:23:45.865Z,20.85
2022-08-03T05:24:47.857Z,20.88
2022-08-03T05:25:49.723Z,20.96
2022-08-03T05:26:47.335Z,21.00
2022-08-03T05:27:45.831Z,21.03
2022-08-03T05:28:51.182Z,21.06
2022-08-03T05:29:46.805Z,21.11
2022-08-03T05:30:45.805Z,21.15
2022-08-03T05:31:45.797Z,21.19
2022-08-03T05:32:45.766Z,21.22
2022-08-03T05:33:45.846Z,21.24
2022-08-03T05:34:45.746Z,21.26
2022-08-03T05:35:57.286Z,21.26
2022-08-03T05:36:46.730Z,21.26
2022-08-03T05:37:54.752Z,21.27
2022-08-03T05:38:46.698Z,21.27
2022-08-03T05:39:45.703Z,21.28
2022-08-03T05:40:46.922Z,21.30
2022-08-03T05:41:46.669Z,21.31
2022-08-03T05:42:45.670Z,21.31
2022-08-03T05:43:45.691Z,21.33
2022-08-03T05:44:45.640Z,21.36
2022-08-03T05:45:45.640Z,21.36
2022-08-03T05:46:45.631Z,21.38
2022-08-03T05:47:45.614Z,21.38
2022-08-03T05:48:45.588Z,21.42
2022-08-03T05:49:45.591Z,21.45
2022-08-03T05:50:45.613Z,21.46
2022-08-03T05:51:45.582Z,21.49
2022-08-03T05:52:45.772Z,21.53
2022-08-03T05:53:45.553Z,21.58
2022-08-03T05:54:56.918Z,21.63
2022-08-03T05:55:46.534Z,21.64
2022-08-03T05:56:45.541Z,21.68
2022-08-03T05:57:45.522Z,21.68
2022-08-03T05:58:45.495Z,21.70
2022-08-03T05:59:53.934Z,21.71
2022-08-03T06:00:46.463Z,21.71
2022-08-03T06:01:45.650Z,21.74
2022-08-03T06:02:45.452Z,21.79
2022-08-03T06:03:45.436Z,21.79
2022-08-03T06:04:45.454Z,21.81
2022-08-03T06:05:54.972Z,21.81
2022-08-03T06:06:46.396Z,21.82
2022-08-03T06:07:45.409Z,21.85
2022-08-03T06:08:45.428Z,21.85
2022-08-03T06:10:33.871Z,21.85
2022-08-03T06:10:46.378Z,21.86
2022-08-03T06:11:45.358Z,21.91
2022-08-03T06:12:45.340Z,21.94
2022-08-03T06:13:45.339Z,21.98
2022-08-03T06:14:45.333Z,21.99
2022-08-03T06:15:45.310Z,22.04
2022-08-03T06:16:45.296Z,22.05
2022-08-03T06:17:45.321Z,22.08
2022-08-03T06:18:45.280Z,22.11
2022-08-03T06:19:45.280Z,22.14
2022-08-03T06:20:45.251Z,22.15
2022-08-03T06:21:45.272Z,22.19
2022-08-03T06:22:50.488Z,22.21
2022-08-03T06:23:55.102Z,22.23
2022-08-03T06:24:53.405Z,22.24
2022-08-03T06:25:46.201Z,22.27
2022-08-03T06:26:45.184Z,22.31
2022-08-03T06:27:45.192Z,22.36
2022-08-03T06:28:52.462Z,22.39
2022-08-03T06:29:46.181Z,22.41
2022-08-03T06:30:45.157Z,22.44
2022-08-03T06:31:45.152Z,22.45
2022-08-03T06:32:52.195Z,22.48
2022-08-03T06:33:48.326Z,22.48
2022-08-03T06:34:46.086Z,22.51
2022-08-03T06:35:45.278Z,22.51
2022-08-03T06:36:45.096Z,22.54
2022-08-03T06:37:45.075Z,22.59
2022-08-03T06:38:45.077Z,22.60
2022-08-03T06:39:45.067Z,22.64
2022-08-03T06:40:45.027Z,22.67
2022-08-03T06:41:45.118Z,22.72
2022-08-03T06:42:45.028Z,22.74
2022-08-03T06:44:03.553Z,22.74
2022-08-03T06:44:46.000Z,22.75
2022-08-03T06:45:45.970Z,22.79
2022-08-03T06:46:44.999Z,22.81
2022-08-03T06:47:45.973Z,22.85
2022-08-03T06:48:44.961Z,22.88
2022-08-03T06:50:12.755Z,22.91
2022-08-03T06:50:45.950Z,22.94
2022-08-03T06:52:03.404Z,22.94
2022-08-03T06:52:45.929Z,22.97
2022-08-03T06:53:45.611Z,23.00
2022-08-03T06:54:44.922Z,23.03
2022-08-03T06:55:45.172Z,23.04
2022-08-03T06:56:44.865Z,23.06
2022-08-03T06:57:45.900Z,23.07
2022-08-03T06:58:44.852Z,23.09
2022-08-03T07:00:06.177Z,23.11
2022-08-03T07:00:45.861Z,23.14
2022-08-03T07:01:45.448Z,23.15
2022-08-03T07:02:44.905Z,23.16
2022-08-03T07:03:47.605Z,23.18
2022-08-03T07:04:45.798Z,23.22
2022-08-03T07:05:45.066Z,23.22
2022-08-03T07:06:44.758Z,23.23
2022-08-03T07:07:45.456Z,23.26
2022-08-03T07:08:44.757Z,23.34
2022-08-03T07:09:56.989Z,23.37
2022-08-03T07:10:45.718Z,23.41
2022-08-03T07:11:45.444Z,23.44
2022-08-03T07:12:55.855Z,23.45
2022-08-03T07:13:46.424Z,23.49
2022-08-03T07:14:44.669Z,23.50
2022-08-03T07:15:55.843Z,23.52
2022-08-03T07:16:45.660Z,23.53
2022-08-03T07:17:44.670Z,23.54
2022-08-03T07:18:44.670Z,23.56
2022-08-03T07:19:44.625Z,23.59
2022-08-03T07:20:44.603Z,23.62
2022-08-03T07:21:44.610Z,23.71
2022-08-03T07:22:44.609Z,23.77
2022-08-03T07:23:44.584Z,23.81
2022-08-03T07:24:44.582Z,23.89
2022-08-03T07:25:44.582Z,23.96
2022-08-03T07:26:44.592Z,23.99
2022-08-03T07:27:46.845Z,24.00
2022-08-03T07:28:45.557Z,24.05
2022-08-03T07:29:44.502Z,24.16
2022-08-03T07:30:44.506Z,24.21
2022-08-03T07:31:44.514Z,24.24
2022-08-03T07:32:50.411Z,24.27
2022-08-03T07:33:45.508Z,24.29
2022-08-03T07:34:44.544Z,24.29
2022-08-03T07:35:44.457Z,24.29
2022-08-03T07:36:44.435Z,24.31
2022-08-03T07:37:54.599Z,24.34
2022-08-03T07:38:45.424Z,24.41
2022-08-03T07:39:44.415Z,24.44
2022-08-03T07:40:46.296Z,24.46
2022-08-03T07:41:44.384Z,24.49
2022-08-03T07:42:44.454Z,24.51
2022-08-03T07:43:44.386Z,24.49
2022-08-03T07:44:44.379Z,24.52
2022-08-03T07:45:44.519Z,24.56
2022-08-03T07:46:44.361Z,24.60
2022-08-03T07:47:44.342Z,24.63
2022-08-03T07:48:45.408Z,24.67
2022-08-03T07:49:57.929Z,24.71
2022-08-03T07:50:44.311Z,24.74
2022-08-03T07:51:44.279Z,24.80
2022-08-03T07:52:44.318Z,24.83
2022-08-03T07:53:47.412Z,24.87
2022-08-03T07:54:44.253Z,24.93
2022-08-03T07:55:44.240Z,24.94
2022-08-03T07:56:44.233Z,24.94
2022-08-03T07:57:44.251Z,24.99
2022-08-03T07:58:44.221Z,25.04
2022-08-03T07:59:57.248Z,25.07
2022-08-03T08:00:45.202Z,25.08
2022-08-03T08:01:44.251Z,25.12
2022-08-03T08:02:45.732Z,25.16
2022-08-03T08:03:52.887Z,25.22
2022-08-03T08:04:45.854Z,25.23
2022-08-03T08:05:44.213Z,25.27
2022-08-03T08:06:45.174Z,25.31
2022-08-03T08:07:44.173Z,25.35
2022-08-03T08:08:45.795Z,25.44
2022-08-03T08:09:44.104Z,25.48
2022-08-03T08:10:57.995Z,25.57
2022-08-03T08:11:45.085Z,25.60
2022-08-03T08:12:44.395Z,25.64
2022-08-03T08:13:44.066Z,25.66
2022-08-03T08:14:45.298Z,25.66
2022-08-03T08:15:44.054Z,25.72
2022-08-03T08:16:44.726Z,25.76
2022-08-03T08:17:44.037Z,25.79
2022-08-03T08:18:44.037Z,25.81
2022-08-03T08:19:51.470Z,25.85
2022-08-03T08:20:45.058Z,25.86
2022-08-03T08:21:53.214Z,25.94
2022-08-03T08:22:44.963Z,25.94
2022-08-03T08:23:49.474Z,25.97
2022-08-03T08:24:44.928Z,25.98
2022-08-03T08:25:43.941Z,26.03
2022-08-03T08:26:44.937Z,26.08
2022-08-03T08:28:30.666Z,26.12
2022-08-03T08:28:44.891Z,26.19
2022-08-03T08:29:47.567Z,26.20
2022-08-03T08:30:44.872Z,26.19
2022-08-03T08:31:43.906Z,26.23
2022-08-03T08:32:43.852Z,26.29
2022-08-03T08:34:44.864Z,26.42
2022-08-03T08:35:43.813Z,26.49
2022-08-03T08:36:43.832Z,26.53
2022-08-03T08:37:43.790Z,26.53
2022-08-03T08:38:44.858Z,26.57
2022-08-03T08:39:43.789Z,26.59
2022-08-03T08:40:43.875Z,26.68
2022-08-03T08:41:46.145Z,26.73
2022-08-03T08:42:57.603Z,26.73
2022-08-03T08:43:44.743Z,26.76
2022-08-03T08:44:43.756Z,26.76
2022-08-03T08:45:43.725Z,26.75
2022-08-03T08:46:43.823Z,26.76
2022-08-03T08:47:51.807Z,26.76
2022-08-03T08:48:44.679Z,26.78
2022-08-03T08:49:58.204Z,26.79
2022-08-03T08:50:44.657Z,26.83
2022-08-03T08:51:59.232Z,26.87
2022-08-03T08:52:44.669Z,26.91
2022-08-03T08:53:43.642Z,26.94
2022-08-03T08:54:43.617Z,26.96
2022-08-03T08:55:58.288Z,26.96
2022-08-03T08:56:44.618Z,26.94
2022-08-03T08:57:43.706Z,26.98
2022-08-03T08:58:43.580Z,26.98
2022-08-03T08:59:48.424Z,27.01
2022-08-03T09:00:44.635Z,27.02
2022-08-03T09:01:43.544Z,27.02
2022-08-03T09:02:43.591Z,27.02
2022-08-03T09:03:43.523Z,27.02
2022-08-03T09:04:43.530Z,27.03
2022-08-03T09:05:55.763Z,27.05
2022-08-03T09:06:58.682Z,27.08
2022-08-03T09:07:44.551Z,27.09
2022-08-03T09:08:43.476Z,27.13
2022-08-03T09:10:07.539Z,27.18
2022-08-03T09:10:44.463Z,27.23
2022-08-03T09:11:51.732Z,27.28
2022-08-03T09:12:44.446Z,27.31
2022-08-03T09:13:43.422Z,27.34
2022-08-03T09:15:00.818Z,27.42
2022-08-03T09:16:00.900Z,27.49
2022-08-03T09:16:44.386Z,27.52
2022-08-03T09:17:48.959Z,27.61
2022-08-03T09:18:44.537Z,27.69
2022-08-03T09:20:03.547Z,27.77
2022-08-03T09:20:44.438Z,27.80
2022-08-03T09:21:44.377Z,27.84
2022-08-03T09:22:43.405Z,27.86
2022-08-03T09:23:51.381Z,27.86
2022-08-03T09:24:44.308Z,27.87
2022-08-03T09:25:44.349Z,27.90
2022-08-03T09:26:43.363Z,27.93
2022-08-03T09:27:44.081Z,27.96
2022-08-03T09:28:59.388Z,28.02
2022-08-03T09:29:45.155Z,28.08
2022-08-03T09:30:43.270Z,28.11
2022-08-03T09:31:44.374Z,28.17
2022-08-03T09:32:43.264Z,28.23
2022-08-03T09:33:43.312Z,28.33
2022-08-03T09:34:43.193Z,28.39
2022-08-03T09:35:58.820Z,28.40
2022-08-03T09:36:44.194Z,28.40
2022-08-03T09:38:11.797Z,28.45
2022-08-03T09:38:44.163Z,28.51
2022-08-03T09:39:44.193Z,28.52
2022-08-03T09:40:43.194Z,28.54
2022-08-03T09:41:43.264Z,28.58
2022-08-03T09:42:43.105Z,28.62
2022-08-03T09:43:43.113Z,28.69
2022-08-03T09:44:43.085Z,28.72
2022-08-03T09:45:43.316Z,28.77
2022-08-03T09:46:43.085Z,28.87
2022-08-03T09:47:44.687Z,28.95
2022-08-03T09:48:43.055Z,29.05
2022-08-03T09:49:43.075Z,29.12
2022-08-03T09:50:43.048Z,29.20
2022-08-03T09:52:31.606Z,29.23
2022-08-03T09:52:49.845Z,29.23
2022-08-03T09:53:56.994Z,29.21
2022-08-03T09:54:43.986Z,29.20
2022-08-03T09:56:35.216Z,29.20
2022-08-03T09:56:44.011Z,29.17
2022-08-03T09:57:42.951Z,29.18
2022-08-03T09:58:42.968Z,29.20
2022-08-03T09:59:42.921Z,29.21
2022-08-03T10:00:43.009Z,29.25
2022-08-03T10:01:43.034Z,29.26
2022-08-03T10:02:42.927Z,29.29
2022-08-03T10:04:03.123Z,29.32
2022-08-03T10:04:43.939Z,29.33
2022-08-03T10:05:42.953Z,29.36
2022-08-03T10:06:42.883Z,29.37
2022-08-03T10:07:45.885Z,29.41
2022-08-03T10:08:42.867Z,29.42
2022-08-03T10:09:42.814Z,29.44
2022-08-03T10:10:42.836Z,29.48
2022-08-03T10:11:42.795Z,29.49
2022-08-03T10:12:42.816Z,29.51
2022-08-03T10:13:42.775Z,29.52
2022-08-03T10:14:42.790Z,29.52
2022-08-03T10:16:22.183Z,29.57
2022-08-03T10:16:43.768Z,29.58
2022-08-03T10:17:42.797Z,29.62
2022-08-03T10:18:42.754Z,29.60
2022-08-03T10:19:42.719Z,29.64
2022-08-03T10:20:42.788Z,29.66
2022-08-03T10:21:42.749Z,29.70
2022-08-03T10:22:42.689Z,29.74
2022-08-03T10:23:42.693Z,29.81
2022-08-03T10:24:42.671Z,29.88
2022-08-03T10:25:42.680Z,29.92
2022-08-03T10:26:49.886Z,29.95
2022-08-03T10:27:43.661Z,29.99
2022-08-03T10:28:45.326Z,30.01
2022-08-03T10:29:42.660Z,30.00
2022-08-03T10:30:42.644Z,30.06
2022-08-03T10:31:57.248Z,30.07
2022-08-03T10:32:43.605Z,30.08
2022-08-03T10:33:49.502Z,30.13
2022-08-03T10:34:45.633Z,30.18
2022-08-03T10:35:42.553Z,30.22
2022-08-03T10:36:43.256Z,30.28
2022-08-03T10:37:56.485Z,30.32
2022-08-03T10:38:45.093Z,30.38
2022-08-03T10:39:42.543Z,30.44
2022-08-03T10:40:49.273Z,30.48
2022-08-03T10:41:43.493Z,30.56
2022-08-03T10:42:43.197Z,30.59
2022-08-03T10:43:42.550Z,30.61
2022-08-03T10:44:43.175Z,30.63
2022-08-03T10:45:42.453Z,30.64
2022-08-03T10:46:44.911Z,30.70
2022-08-03T10:47:42.484Z,30.72
2022-08-03T10:48:42.425Z,30.75
2022-08-03T10:49:42.450Z,30.82
2022-08-03T10:50:42.398Z,30.83
2022-08-03T10:51:42.387Z,30.85
2022-08-03T10:52:44.360Z,30.79
2022-08-03T10:53:46.225Z,30.78
2022-08-03T10:54:43.462Z,30.78
2022-08-03T10:55:42.349Z,30.76
2022-08-03T10:56:49.915Z,30.79
2022-08-03T10:57:43.332Z,30.81
2022-08-03T10:58:57.047Z,30.82
2022-08-03T10:59:43.311Z,30.82
2022-08-03T11:00:42.355Z,30.82
2022-08-03T11:01:58.306Z,30.85
2022-08-03T11:02:43.271Z,30.91
2022-08-03T11:03:42.262Z,30.94
2022-08-03T11:04:42.272Z,31.00
2022-08-03T11:05:42.280Z,31.07
2022-08-03T11:06:42.263Z,31.10
2022-08-03T11:07:42.265Z,31.16
2022-08-03T11:08:42.275Z,31.19
2022-08-03T11:09:42.195Z,31.22
2022-08-03T11:10:42.239Z,31.19
2022-08-03T11:11:42.425Z,31.15
2022-08-03T11:12:42.173Z,31.15
2022-08-03T11:13:42.896Z,31.19
2022-08-03T11:14:42.223Z,31.25
2022-08-03T11:15:42.145Z,31.30
2022-08-03T11:16:42.167Z,31.35
2022-08-03T11:17:46.746Z,31.38
2022-08-03T11:18:43.178Z,31.37
2022-08-03T11:19:56.958Z,31.35
2022-08-03T11:20:43.117Z,31.35
2022-08-03T11:21:42.180Z,31.40
2022-08-03T11:22:42.101Z,31.45
2022-08-03T11:24:03.966Z,31.50
2022-08-03T11:24:43.040Z,31.59
2022-08-03T11:25:54.547Z,31.65
2022-08-03T11:26:43.027Z,31.71
2022-08-03T11:27:42.010Z,31.68
2022-08-03T11:28:42.070Z,31.60
2022-08-03T11:29:42.043Z,31.57
2022-08-03T11:30:41.992Z,31.57
2022-08-03T11:31:50.646Z,31.62
2022-08-03T11:32:46.623Z,31.60
2022-08-03T11:33:42.945Z,31.62
2022-08-03T11:34:41.930Z,31.67
2022-08-03T11:35:41.955Z,31.74
2022-08-03T11:36:41.946Z,31.85
2022-08-03T11:37:41.939Z,31.92
2022-08-03T11:38:42.914Z,31.99
2022-08-03T11:39:41.905Z,32.10
2022-08-03T11:40:41.896Z,32.16
2022-08-03T11:41:43.287Z,32.22
2022-08-03T11:42:41.849Z,32.27
2022-08-03T11:43:41.868Z,32.35
2022-08-03T11:44:41.836Z,32.34
2022-08-03T11:45:42.841Z,32.36
2022-08-03T11:46:41.830Z,32.34
2022-08-03T11:47:50.854Z,32.36
2022-08-03T11:48:42.830Z,32.35
2022-08-03T11:49:42.815Z,32.39
2022-08-03T11:50:41.843Z,32.41
2022-08-03T11:51:41.951Z,32.46
2022-08-03T11:52:41.803Z,32.46
2022-08-03T11:53:42.891Z,32.50
2022-08-03T11:54:41.769Z,32.49
2022-08-03T11:55:43.397Z,32.50
2022-08-03T11:56:41.723Z,32.53
2022-08-03T11:58:58.162Z,32.56
2022-08-03T11:59:19.291Z,32.56
2022-08-03T11:59:42.745Z,32.59
2022-08-03T12:00:41.736Z,32.61
2022-08-03T12:01:42.364Z,32.66
2022-08-03T12:02:41.867Z,32.76
2022-08-03T12:03:41.758Z,32.83
2022-08-03T12:04:41.626Z,32.90
2022-08-03T12:05:41.625Z,32.99
2022-08-03T12:06:47.050Z,33.05
2022-08-03T12:08:03.906Z,33.14
2022-08-03T12:08:42.630Z,33.24
2022-08-03T12:09:41.587Z,33.35
2022-08-03T12:10:41.568Z,33.44
2022-08-03T12:11:50.976Z,33.59
2022-08-03T12:12:46.435Z,33.65
2022-08-03T12:14:44.307Z,33.63
2022-08-03T12:14:48.601Z,33.63
2022-08-03T12:15:42.535Z,33.63
2022-08-03T12:16:41.507Z,33.68
2022-08-03T12:17:41.525Z,33.75
2022-08-03T12:18:41.483Z,33.84
2022-08-03T12:19:41.481Z,33.97
2022-08-03T12:20:41.540Z,34.09
2022-08-03T12:21:41.634Z,34.23
2022-08-03T12:22:42.576Z,34.27
2022-08-03T12:23:41.444Z,34.37
2022-08-03T12:24:41.478Z,34.58
2022-08-03T12:25:41.414Z,34.83
2022-08-03T12:26:41.405Z,34.98
2022-08-03T12:27:41.404Z,35.27
2022-08-03T12:28:44.981Z,35.54
2022-08-03T12:29:42.377Z,35.81
2022-08-03T12:30:42.357Z,35.98
2022-08-03T12:31:41.368Z,36.22
2022-08-03T12:32:41.346Z,36.78
2022-08-03T12:33:41.341Z,37.46
2022-08-03T12:34:45.347Z,38.26
2022-08-03T12:35:42.320Z,39.09
2022-08-03T12:36:42.310Z,40.02
2022-08-03T12:37:41.340Z,41.04
2022-08-03T12:38:41.301Z,42.08
2022-08-03T12:40:01.699Z,43.06
2022-08-03T12:40:42.273Z,44.18
2022-08-03T12:41:41.281Z,45.13
2022-08-03T12:42:41.322Z,46.01
2022-08-03T12:43:41.243Z,46.83
2022-08-03T12:44:41.263Z,47.62
2022-08-03T12:45:41.214Z,48.33
2022-08-03T12:46:47.098Z,49.05
2022-08-03T12:47:42.321Z,49.61
2022-08-03T12:48:41.204Z,50.15
2022-08-03T12:49:41.311Z,50.54
2022-08-03T12:50:41.175Z,50.99
2022-08-03T12:51:41.226Z,51.71
2022-08-03T12:52:41.166Z,52.32
2022-08-03T12:53:41.157Z,52.91